Time;durP1;ratioP1;P1;durP2;ratioP2;P2;SDS_P1;SDS_P2;PMS_P1;PMS_P2;Temp;Humidity;BMP_temperature;BMP_pressure;BME280_temperature;BME280_humidity;BME280_pressure;Samples;Min_cycle;Max_cycle;Signal;HPM_P1;HPM_P2
2024/04/07 00:01:32;;;;;;;2.20;0.93;;;;;;;19.04;28.92;95028.47;5068299;28;20042;-49
2024/04/07 00:04:01;;;;;;;1.70;0.80;;;;;;;19.21;29.02;95028.53;5069935;28;20033;-47
2024/04/07 00:06:29;;;;;;;5.25;1.20;;;;;;;19.24;29.14;95028.84;5070243;28;20094;-49
2024/04/07 00:08:55;;;;;;;2.45;0.90;;;;;;;19.14;29.06;95016.28;5074758;28;20061;-47
2024/04/07 00:11:20;;;;;;;5.10;0.90;;;;;;;18.91;29.62;95014.56;5065322;28;20033;-48
2024/04/07 00:13:46;;;;;;;6.53;1.08;;;;;;;18.43;29.74;95001.69;5068236;28;20040;-49
2024/04/07 00:16:12;;;;;;;3.00;0.88;;;;;;;18.80;29.84;94994.31;5068439;28;20028;-48
2024/04/07 00:18:38;;;;;;;3.53;0.80;;;;;;;18.92;29.62;95000.34;5069945;28;20023;-48
2024/04/07 00:21:04;;;;;;;3.05;0.93;;;;;;;19.04;28.82;94984.50;5075251;28;20031;-45
2024/04/07 00:23:31;;;;;;;4.00;0.98;;;;;;;19.00;28.55;94986.00;5066418;28;20036;-48
2024/04/07 00:25:57;;;;;;;3.55;1.05;;;;;;;19.15;28.82;94985.44;5062403;28;20116;-44
2024/04/07 00:28:23;;;;;;;3.28;0.90;;;;;;;19.21;28.67;94986.34;5069020;28;20119;-46
2024/04/07 00:30:49;;;;;;;3.15;0.90;;;;;;;19.13;29.50;94983.06;5068482;28;20111;-46
2024/04/07 00:33:15;;;;;;;5.32;1.05;;;;;;;19.02;28.41;94978.66;5092356;28;20112;-47
2024/04/07 00:35:53;;;;;;;2.17;0.70;;;;;;;19.08;28.12;94976.91;5069671;28;20113;-47
2024/04/07 00:38:19;;;;;;;3.03;1.17;;;;;;;19.16;28.39;94983.63;5067937;28;20048;-44
2024/04/07 00:40:44;;;;;;;2.97;1.00;;;;;;;19.08;28.75;94977.69;5051380;28;20036;-50
2024/04/07 00:43:10;;;;;;;2.25;0.85;;;;;;;19.26;27.48;94966.13;5062675;28;20050;-45
2024/04/07 00:45:35;;;;;;;3.05;0.73;;;;;;;19.20;27.17;94968.94;5059645;28;20024;-44
2024/04/07 00:48:01;;;;;;;3.00;0.85;;;;;;;19.18;27.49;94963.09;5059964;28;20095;-49
2024/04/07 00:50:27;;;;;;;3.20;0.70;;;;;;;19.11;27.42;94961.44;5064411;28;20063;-43
2024/04/07 00:52:53;;;;;;;4.72;1.00;;;;;;;19.08;26.31;94964.53;5067146;28;20469;-44
2024/04/07 00:55:19;;;;;;;3.10;0.95;;;;;;;19.49;27.31;94978.38;5068898;28;20042;-44
2024/04/07 00:57:45;;;;;;;4.30;1.00;;;;;;;19.29;28.35;94978.06;5067841;28;20148;-44
2024/04/07 01:00:10;;;;;;;2.15;0.95;;;;;;;19.40;26.85;94973.75;5068320;28;20025;-44
2024/04/07 01:02:36;;;;;;;3.42;1.27;;;;;;;19.54;27.62;94978.47;5036826;28;20078;-45
2024/04/07 01:05:01;;;;;;;5.88;0.90;;;;;;;19.50;27.69;94966.81;5072108;28;20081;-44
2024/04/07 01:07:27;;;;;;;3.40;0.90;;;;;;;18.90;29.40;94980.53;5055538;28;20048;-45
2024/04/07 01:09:54;;;;;;;3.15;1.10;;;;;;;19.17;28.55;94972.03;5063951;28;20036;-45
2024/04/07 01:12:20;;;;;;;2.75;0.90;;;;;;;18.85;29.49;94975.16;5064424;28;20023;-44
2024/04/07 01:14:45;;;;;;;4.88;1.00;;;;;;;19.01;28.47;94976.25;5072746;28;20036;-44
2024/04/07 01:17:10;;;;;;;6.53;0.90;;;;;;;19.17;28.39;94982.59;5071638;28;20032;-44
2024/04/07 01:19:36;;;;;;;5.28;0.90;;;;;;;19.11;28.70;94981.69;5055020;28;20093;-45
2024/04/07 01:22:01;;;;;;;2.53;0.80;;;;;;;19.24;27.97;94977.97;5069289;28;20029;-47
2024/04/07 01:24:27;;;;;;;4.65;1.00;;;;;;;19.32;28.00;94977.56;5068983;28;20044;-45
2024/04/07 01:26:53;;;;;;;2.83;1.00;;;;;;;19.09;28.62;94971.38;5065166;28;20036;-47
2024/04/07 01:29:18;;;;;;;3.05;0.82;;;;;;;18.93;29.81;94982.69;5065127;28;20053;-44
2024/04/07 01:31:44;;;;;;;1.17;0.60;;;;;;;18.83;30.42;94977.22;5071077;28;20074;-44
2024/04/07 01:34:09;;;;;;;4.70;1.15;;;;;;;18.91;29.85;94977.66;5072589;28;20052;-45
2024/04/07 01:36:35;;;;;;;6.43;1.08;;;;;;;19.09;29.25;94976.66;5071923;28;20037;-46
2024/04/07 01:39:01;;;;;;;4.22;0.93;;;;;;;18.85;30.10;94981.25;5057378;28;20032;-44
2024/04/07 01:41:26;;;;;;;4.43;1.00;;;;;;;18.95;29.89;94978.00;5071317;28;20028;-44
2024/04/07 01:43:51;;;;;;;1.55;0.80;;;;;;;18.98;28.70;94979.34;5072355;28;20122;-46
2024/04/07 01:46:17;;;;;;;3.95;0.88;;;;;;;18.82;29.13;94981.69;5070585;28;20040;-44
2024/04/07 01:48:42;;;;;;;2.47;1.13;;;;;;;18.71;29.04;94974.59;5054260;28;20067;-46
2024/04/07 01:51:08;;;;;;;0.85;0.60;;;;;;;18.68;29.22;94961.91;5059404;28;20032;-44
2024/04/07 01:53:33;;;;;;;2.20;1.00;;;;;;;18.79;29.37;94963.72;5070236;28;20087;-44
2024/04/07 01:55:59;;;;;;;2.90;0.88;;;;;;;18.54;30.17;94964.00;5054104;28;20045;-45
2024/04/07 01:58:24;;;;;;;1.10;0.90;;;;;;;18.54;30.57;94975.34;5046520;28;20033;-45
2024/04/07 02:00:50;;;;;;;1.58;0.70;;;;;;;18.65;30.04;94962.38;5070942;28;20131;-43
2024/04/07 02:03:15;;;;;;;3.63;0.90;;;;;;;18.60;29.70;94965.72;5050348;28;20029;-44
2024/04/07 02:05:41;;;;;;;2.25;0.70;;;;;;;18.83;28.70;94962.22;5086334;28;20074;-43
2024/04/07 02:08:06;;;;;;;6.13;0.90;;;;;;;18.46;29.25;94964.38;5069781;28;20044;-44
2024/04/07 02:10:32;;;;;;;2.75;0.88;;;;;;;18.55;29.50;94968.25;5052250;28;20033;-45
2024/04/07 02:12:58;;;;;;;3.60;1.00;;;;;;;18.67;29.29;94969.00;5070693;28;20035;-44
2024/04/07 02:15:24;;;;;;;4.50;0.80;;;;;;;18.61;29.28;94969.16;5067132;28;20138;-45
2024/04/07 02:17:50;;;;;;;3.47;0.95;;;;;;;18.40;29.22;94960.84;5069984;28;20027;-44
2024/04/07 02:20:16;;;;;;;3.60;0.82;;;;;;;18.54;28.75;94956.09;5068827;28;20377;-44
2024/04/07 02:22:42;;;;;;;2.13;0.80;;;;;;;18.48;28.92;94972.84;5070850;28;20017;-45
2024/04/07 02:25:07;;;;;;;2.25;0.75;;;;;;;18.84;28.48;94963.81;5070954;28;20047;-45
2024/04/07 02:27:33;;;;;;;4.15;0.73;;;;;;;18.77;29.23;94971.03;5061072;28;20477;-45
2024/04/07 02:29:58;;;;;;;2.53;0.80;;;;;;;18.63;29.78;94952.06;5069947;28;20043;-48
2024/04/07 02:32:24;;;;;;;4.93;0.90;;;;;;;18.51;29.14;94952.09;5053800;28;20032;-47
2024/04/07 02:34:49;;;;;;;2.67;0.70;;;;;;;18.29;29.96;94943.22;5067291;28;20097;-47
2024/04/07 02:37:15;;;;;;;1.50;0.70;;;;;;;18.48;29.36;94939.41;5052257;28;20446;-45
2024/04/07 02:39:40;;;;;;;2.45;0.80;;;;;;;18.38;29.88;94941.03;5067545;28;20028;-47
2024/04/07 02:42:05;;;;;;;2.13;0.80;;;;;;;18.42;29.50;94942.97;5050022;28;20044;-47
2024/04/07 02:49:59;;;;;;;6.68;0.80;;;;;;;18.41;29.09;94927.41;5070818;28;20116;-49
2024/04/07 02:52:24;;;;;;;2.40;0.82;;;;;;;18.52;28.49;94952.91;5049974;28;20126;-45
2024/04/07 02:54:49;;;;;;;2.17;0.75;;;;;;;18.59;28.59;94943.03;5069860;28;20028;-45
2024/04/07 02:57:15;;;;;;;5.28;0.88;;;;;;;18.33;28.34;94941.72;5072567;28;20043;-49
2024/04/07 02:59:40;;;;;;;3.60;0.80;;;;;;;18.48;27.62;94949.13;5053143;28;20100;-45
2024/04/07 03:02:06;;;;;;;3.58;0.77;;;;;;;18.38;29.22;94956.84;5065121;28;20055;-47
2024/04/07 03:04:32;;;;;;;4.43;0.93;;;;;;;18.36;29.18;94944.69;5066016;28;20039;-47
2024/04/07 03:07:00;;;;;;;1.90;0.80;;;;;;;18.24;29.57;94937.84;5057247;28;20035;-49
2024/04/07 03:09:27;;;;;;;3.67;0.85;;;;;;;18.19;29.12;94906.97;5068722;28;20085;-48
2024/04/07 03:11:54;;;;;;;3.67;0.88;;;;;;;18.31;29.25;94915.63;5062324;28;20052;-45
2024/04/07 03:14:19;;;;;;;2.05;0.75;;;;;;;18.20;29.45;94929.66;5068068;28;20039;-48
2024/04/07 03:16:46;;;;;;;4.07;0.80;;;;;;;18.17;32.50;94935.34;5068065;28;20040;-44
2024/04/07 03:19:11;;;;;;;2.97;1.00;;;;;;;18.13;31.75;94937.66;5052852;28;20104;-47
2024/04/07 03:21:37;;;;;;;2.13;0.82;;;;;;;18.03;30.28;94936.63;5066758;28;20028;-43
2024/04/07 03:24:03;;;;;;;2.45;0.85;;;;;;;18.02;30.13;94937.69;5068256;28;20115;-47
2024/04/07 03:26:29;;;;;;;2.67;0.73;;;;;;;17.98;30.41;94937.34;5063179;28;20547;-45
2024/04/07 03:28:55;;;;;;;4.40;0.80;;;;;;;18.25;29.42;94934.19;5059554;28;20037;-45
2024/04/07 03:31:20;;;;;;;1.88;0.77;;;;;;;17.83;30.59;94934.34;5048029;28;20033;-45
2024/04/07 03:33:48;;;;;;;4.18;0.88;;;;;;;17.81;30.58;94942.47;5067777;28;20445;-47
2024/04/07 03:36:14;;;;;;;2.33;0.77;;;;;;;18.02;29.99;94954.25;5057934;28;20073;-46
2024/04/07 03:38:40;;;;;;;2.60;0.77;;;;;;;18.02;29.94;94942.94;5052581;28;20418;-45
2024/04/07 03:41:05;;;;;;;4.20;0.82;;;;;;;18.15;29.09;94943.47;5059481;28;20032;-44
2024/04/07 03:43:31;;;;;;;3.03;0.98;;;;;;;18.00;29.89;94943.16;5064633;28;20020;-47
2024/04/07 03:46:02;;;;;;;4.45;0.80;;;;;;;18.34;29.20;94952.03;5069025;28;20105;-45
2024/04/07 03:48:28;;;;;;;5.45;0.95;;;;;;;18.33;28.42;94954.88;5068994;28;20059;-48
2024/04/07 03:50:53;;;;;;;2.63;0.80;;;;;;;18.24;29.24;94964.19;5068793;28;20059;-48
2024/04/07 03:53:19;;;;;;;3.50;0.85;;;;;;;18.30;29.37;94960.63;5067383;28;20025;-46
2024/04/07 03:55:44;;;;;;;4.38;0.93;;;;;;;17.96;29.42;94955.97;5068552;28;20354;-46
2024/04/07 03:58:10;;;;;;;3.28;0.88;;;;;;;18.28;28.92;94958.22;5070438;28;20138;-44
2024/04/07 04:00:35;;;;;;;3.55;0.90;;;;;;;18.22;29.88;94959.16;5062511;28;20029;-47
2024/04/07 04:03:02;;;;;;;1.90;0.90;;;;;;;18.40;29.26;94968.72;5069294;28;20461;-46
2024/04/07 04:05:27;;;;;;;3.58;0.90;;;;;;;18.36;29.12;94976.28;5069854;28;20055;-49
2024/04/07 04:07:52;;;;;;;4.55;0.90;;;;;;;18.15;29.52;94988.22;5067822;28;20048;-45
2024/04/07 04:10:18;;;;;;;3.05;0.90;;;;;;;18.25;29.85;94982.38;5067034;28;20024;-45
2024/04/07 04:12:43;;;;;;;2.40;0.70;;;;;;;18.49;29.05;94977.88;5068610;28;20036;-47
2024/04/07 04:15:09;;;;;;;4.55;0.90;;;;;;;18.36;29.03;94976.28;5076036;28;20104;-46
2024/04/07 04:17:35;;;;;;;3.53;0.93;;;;;;;18.46;28.87;94985.44;5067313;28;20461;-48
2024/04/07 04:20:00;;;;;;;5.07;1.17;;;;;;;18.50;28.89;94991.84;5062646;28;20035;-51
2024/04/07 04:22:26;;;;;;;3.58;0.80;;;;;;;18.46;28.73;94998.59;5052094;28;20028;-44
2024/04/07 04:24:51;;;;;;;3.75;0.80;;;;;;;18.24;29.29;94998.41;5068253;28;20048;-47
2024/04/07 04:27:16;;;;;;;3.55;0.82;;;;;;;18.36;28.89;95001.84;5068616;28;20056;-45
2024/04/07 04:29:42;;;;;;;1.88;0.70;;;;;;;18.46;28.73;94998.59;5068720;28;20488;-48
2024/04/07 04:32:07;;;;;;;4.60;0.82;;;;;;;18.36;28.89;95013.16;5047889;28;20036;-46
2024/04/07 04:34:33;;;;;;;3.13;0.90;;;;;;;18.47;28.49;95016.81;5069791;28;20036;-48
2024/04/07 04:36:59;;;;;;;2.30;0.80;;;;;;;18.46;28.74;95030.22;5071336;28;20043;-46
2024/04/07 04:39:25;;;;;;;0.88;0.60;;;;;;;18.52;28.15;95037.19;5071802;28;20032;-49
2024/04/07 04:41:51;;;;;;;3.33;0.80;;;;;;;18.62;28.26;95063.75;5073970;28;20123;-46
2024/04/07 04:44:17;;;;;;;3.90;1.00;;;;;;;18.56;29.48;95070.75;5068037;28;20095;-47
2024/04/07 04:46:44;;;;;;;1.88;0.70;;;;;;;18.36;28.40;95086.88;5055585;28;20048;-44
2024/04/07 04:49:13;;;;;;;2.25;0.95;;;;;;;18.42;28.03;95108.06;5073491;28;20028;-47
2024/04/07 04:51:39;;;;;;;2.60;0.70;;;;;;;18.39;28.16;95105.88;5066395;28;20025;-43
2024/04/07 04:54:05;;;;;;;1.80;0.85;;;;;;;17.80;28.99;95103.97;5071920;28;20021;-44
2024/04/07 04:56:31;;;;;;;4.07;0.90;;;;;;;17.74;30.76;95126.72;5073661;28;20479;-46
2024/04/07 04:58:57;;;;;;;2.58;0.85;;;;;;;17.45;30.24;95148.56;5065135;28;20098;-43
2024/04/07 05:01:27;;;;;;;2.60;0.95;;;;;;;17.56;30.08;95142.53;5072166;28;20032;-45
2024/04/07 05:03:53;;;;;;;3.28;1.02;;;;;;;17.70;30.87;95167.63;5070836;28;20063;-43
2024/04/07 05:06:19;;;;;;;3.05;0.93;;;;;;;17.64;32.14;95186.13;5068312;28;20036;-44
2024/04/07 05:08:46;;;;;;;4.05;1.17;;;;;;;17.46;32.91;95203.56;5071391;28;20055;-44
2024/04/07 05:11:11;;;;;;;3.05;1.08;;;;;;;17.40;33.51;95199.16;5073385;28;20059;-44
2024/04/07 05:13:37;;;;;;;4.13;1.60;;;;;;;17.23;34.89;95209.47;5055224;28;20532;-44
2024/04/07 05:16:03;;;;;;;6.40;1.27;;;;;;;16.90;33.35;95215.84;5086006;28;20457;-44
2024/04/07 05:18:30;;;;;;;4.10;1.30;;;;;;;17.24;32.93;95226.84;5071231;28;20086;-44
2024/04/07 05:20:56;;;;;;;4.78;1.00;;;;;;;17.36;31.81;95221.66;5067672;28;20075;-47
2024/04/07 05:23:22;;;;;;;3.17;1.00;;;;;;;17.57;31.99;95210.69;5071722;28;20109;-45
2024/04/07 05:25:48;;;;;;;2.53;1.10;;;;;;;17.10;31.13;95199.91;5068294;28;20033;-46
2024/04/07 05:28:13;;;;;;;3.08;0.90;;;;;;;17.27;30.94;95212.44;5068389;28;20039;-47
2024/04/07 05:30:39;;;;;;;3.03;0.90;;;;;;;17.70;30.65;95214.19;5070416;28;20032;-47
2024/04/07 05:33:06;;;;;;;3.08;0.90;;;;;;;18.08;29.37;95203.34;5068663;28;20028;-46
2024/04/07 05:35:32;;;;;;;2.70;0.90;;;;;;;18.23;28.76;95207.41;5071641;28;20048;-46
2024/04/07 05:37:58;;;;;;;3.60;0.90;;;;;;;18.45;28.35;95203.22;5070176;28;20077;-45
2024/04/07 05:40:23;;;;;;;3.67;1.08;;;;;;;18.61;27.83;95214.13;5071373;28;20032;-45
2024/04/07 05:42:51;;;;;;;1.98;0.80;;;;;;;18.94;27.33;95227.56;5069893;28;20074;-46
2024/04/07 05:45:16;;;;;;;2.67;0.85;;;;;;;19.11;26.88;95222.41;5072551;28;20056;-44
2024/04/07 05:47:41;;;;;;;4.90;1.15;;;;;;;19.34;26.39;95213.66;5070636;28;20120;-45
2024/04/07 05:50:07;;;;;;;2.40;0.98;;;;;;;19.46;26.18;95221.53;5071198;28;20111;-50
2024/04/07 05:52:33;;;;;;;5.25;1.58;;;;;;;19.62;27.18;95220.00;5068743;28;20037;-46
2024/04/07 05:54:58;;;;;;;3.50;0.90;;;;;;;19.86;27.52;95226.03;5067585;28;20107;-48
2024/04/07 05:57:24;;;;;;;4.75;1.10;;;;;;;20.01;27.19;95230.81;5069960;28;20025;-44
2024/04/07 05:59:49;;;;;;;1.92;1.00;;;;;;;19.90;26.91;95221.88;5069785;28;20032;-45
2024/04/07 06:02:14;;;;;;;2.20;0.95;;;;;;;19.90;27.61;95221.09;5062510;28;20049;-48
2024/04/07 06:04:40;;;;;;;2.67;0.98;;;;;;;20.02;27.13;95213.91;5068906;28;20032;-45
2024/04/07 06:07:05;;;;;;;3.28;0.80;;;;;;;20.02;27.24;95213.13;5072287;28;20139;-45
2024/04/07 06:09:31;;;;;;;4.43;1.05;;;;;;;20.14;27.16;95218.34;5068195;28;20051;-44
2024/04/07 06:11:56;;;;;;;2.20;0.70;;;;;;;20.40;26.74;95224.88;5070944;28;20036;-44
2024/04/07 06:14:22;;;;;;;3.63;0.90;;;;;;;20.92;25.90;95227.28;5069169;28;20029;-44
2024/04/07 06:16:47;;;;;;;2.38;1.00;;;;;;;21.59;25.15;95220.25;5059370;28;20044;-45
2024/04/07 06:19:13;;;;;;;7.15;0.90;;;;;;;22.17;24.13;95242.63;5068005;28;20028;-45
2024/04/07 06:21:39;;;;;;;3.83;1.15;;;;;;;22.83;23.84;95237.13;5069872;28;20040;-44
2024/04/07 06:24:05;;;;;;;1.55;0.75;;;;;;;23.59;22.85;95230.69;5070356;28;20071;-46
2024/04/07 06:26:30;;;;;;;3.70;1.08;;;;;;;24.12;22.03;95230.63;5057898;28;20052;-45
2024/04/07 06:28:55;;;;;;;3.50;0.90;;;;;;;24.73;21.62;95234.41;5071549;28;20068;-49
2024/04/07 06:31:21;;;;;;;2.40;0.80;;;;;;;25.23;21.21;95232.00;5069557;28;20601;-46
2024/04/07 06:33:46;;;;;;;3.35;0.90;;;;;;;25.77;20.34;95230.50;5064277;28;20029;-44
2024/04/07 06:36:12;;;;;;;1.55;0.60;;;;;;;26.30;19.85;95250.22;5066436;28;20029;-45
2024/04/07 06:38:37;;;;;;;1.45;0.80;;;;;;;26.45;19.60;95244.00;5069985;28;20032;-47
2024/04/07 06:41:03;;;;;;;4.13;0.90;;;;;;;26.51;24.21;95247.44;5071024;28;20040;-47
2024/04/07 06:43:28;;;;;;;2.33;0.90;;;;;;;25.61;24.68;95235.88;5071422;28;20070;-47
2024/04/07 06:45:57;;;;;;;1.83;0.60;;;;;;;25.47;24.73;95238.31;5065914;28;20064;-46
2024/04/07 06:48:22;;;;;;;4.00;0.85;;;;;;;25.27;26.04;95236.50;5064333;28;20094;-48
2024/04/07 06:50:48;;;;;;;2.88;1.00;;;;;;;25.26;25.21;95240.22;5064470;28;20029;-49
2024/04/07 06:53:14;;;;;;;3.63;1.00;;;;;;;25.28;23.91;95246.09;5062246;28;20381;-46
2024/04/07 06:55:40;;;;;;;3.30;0.90;;;;;;;25.34;22.27;95246.88;5066325;28;20044;-45
2024/04/07 06:58:05;;;;;;;1.73;0.80;;;;;;;25.07;23.10;95247.94;5059703;28;20028;-46
2024/04/07 07:00:31;;;;;;;2.13;0.70;;;;;;;24.74;23.42;95244.00;5061999;28;20071;-47
2024/04/07 07:02:56;;;;;;;1.70;0.88;;;;;;;25.31;22.11;95253.53;5069155;28;20032;-47
2024/04/07 07:05:22;;;;;;;1.75;0.80;;;;;;;25.69;20.39;95248.63;5064490;28;20057;-46
2024/04/07 07:07:48;;;;;;;2.78;0.80;;;;;;;25.16;21.78;95246.34;5069099;28;20052;-48
2024/04/07 07:10:13;;;;;;;2.03;0.82;;;;;;;25.22;22.58;95246.34;5065135;28;20031;-47
2024/04/07 07:12:39;;;;;;;4.00;1.20;;;;;;;25.57;23.08;95245.50;5052606;28;20465;-50
2024/04/07 07:15:05;;;;;;;3.03;0.90;;;;;;;25.75;22.59;95242.22;5069045;28;20051;-48
2024/04/07 07:17:31;;;;;;;2.08;0.82;;;;;;;26.19;24.43;95251.34;5072077;28;20059;-47
2024/04/07 07:19:56;;;;;;;3.80;1.33;;;;;;;27.09;24.06;95249.38;5070356;28;20064;-44
2024/04/07 07:22:22;;;;;;;1.50;1.00;;;;;;;28.63;22.63;95247.56;5060932;28;20033;-48
2024/04/07 07:24:47;;;;;;;1.83;1.02;;;;;;;29.76;23.02;95248.34;5083035;28;20043;-48
2024/04/07 07:27:12;;;;;;;2.58;1.15;;;;;;;30.69;21.42;95252.50;5068978;28;20040;-47
2024/04/07 07:29:38;;;;;;;1.92;1.00;;;;;;;30.62;22.08;95260.19;5069213;28;20485;-45
2024/04/07 07:32:05;;;;;;;3.13;0.90;;;;;;;30.69;21.36;95255.19;5049112;28;20041;-45
2024/04/07 07:34:31;;;;;;;2.85;0.90;;;;;;;31.17;20.67;95254.59;5050061;28;20039;-47
2024/04/07 07:36:56;;;;;;;2.58;0.90;;;;;;;31.49;19.73;95248.13;5068746;28;20036;-47
2024/04/07 07:39:21;;;;;;;2.58;1.00;;;;;;;31.16;21.48;95251.09;5061783;28;20036;-47
2024/04/07 07:41:47;;;;;;;2.45;0.80;;;;;;;31.63;21.91;95255.28;5065098;28;20036;-47
2024/04/07 07:44:12;;;;;;;3.42;0.90;;;;;;;32.01;19.54;95252.88;5068461;28;20036;-47
2024/04/07 07:46:38;;;;;;;3.53;0.82;;;;;;;31.99;21.78;95255.06;5067981;28;20024;-47
2024/04/07 07:49:05;;;;;;;5.43;1.20;;;;;;;31.29;23.46;95259.38;5068385;28;20063;-47
2024/04/07 07:51:31;;;;;;;3.17;1.00;;;;;;;30.80;22.97;95268.06;5068273;28;20036;-46
2024/04/07 07:53:57;;;;;;;1.85;0.90;;;;;;;30.27;25.61;95260.66;5050234;28;20037;-48
2024/04/07 07:56:22;;;;;;;5.68;1.00;;;;;;;30.06;25.52;95265.66;5034272;28;20040;-48
2024/04/07 07:58:47;;;;;;;3.42;1.00;;;;;;;29.47;26.40;95268.13;5066517;28;20044;-46
2024/04/07 08:01:13;;;;;;;2.40;1.00;;;;;;;29.24;26.48;95273.38;5066330;28;20059;-47
2024/04/07 08:03:38;;;;;;;2.47;0.90;;;;;;;28.51;27.08;95273.97;5068117;28;20025;-50
2024/04/07 08:06:04;;;;;;;3.55;0.90;;;;;;;28.57;26.41;95270.94;5067971;28;20039;-49
2024/04/07 08:08:30;;;;;;;2.60;1.08;;;;;;;28.07;28.74;95274.00;5067379;28;20068;-50
2024/04/07 08:10:56;;;;;;;4.53;1.20;;;;;;;28.17;26.24;95272.28;5061664;28;20044;-49
2024/04/07 08:13:21;;;;;;;3.47;1.17;;;;;;;28.57;24.61;95259.44;5068292;28;20052;-50
2024/04/07 08:15:47;;;;;;;2.22;0.93;;;;;;;29.27;24.46;95263.16;5066678;28;20048;-47
2024/04/07 08:18:13;;;;;;;2.90;1.00;;;;;;;29.12;26.92;95266.88;5067227;28;20036;-49
2024/04/07 08:20:40;;;;;;;3.47;1.02;;;;;;;29.38;26.30;95264.56;5067711;28;20024;-44
2024/04/07 08:23:06;;;;;;;3.08;0.90;;;;;;;29.34;26.65;95264.38;5066825;28;20036;-48
2024/04/07 08:25:33;;;;;;;2.15;1.00;;;;;;;29.26;26.39;95278.41;5067983;28;20028;-50
2024/04/07 08:27:58;;;;;;;2.42;0.90;;;;;;;29.45;25.38;95267.63;5068457;28;20027;-49
2024/04/07 08:30:24;;;;;;;2.85;1.02;;;;;;;29.25;25.00;95263.44;5067839;28;20036;-47
2024/04/07 08:32:49;;;;;;;1.38;0.75;;;;;;;29.00;23.40;95264.66;5064446;28;20076;-49
2024/04/07 08:35:15;;;;;;;1.98;0.85;;;;;;;29.21;23.23;95263.25;5063275;28;20037;-46
2024/04/07 08:37:40;;;;;;;1.52;0.80;;;;;;;29.27;24.37;95268.53;5067962;28;20105;-52
2024/04/07 08:40:07;;;;;;;2.17;0.90;;;;;;;28.92;20.68;95258.09;5066634;28;20090;-49
2024/04/07 08:42:33;;;;;;;2.45;0.70;;;;;;;28.75;19.56;95260.50;5067974;28;20096;-50
2024/04/07 08:45:03;;;;;;;2.75;0.90;;;;;;;28.32;23.35;95257.91;5050189;28;20040;-49
2024/04/07 08:47:29;;;;;;;3.47;0.80;;;;;;;28.55;21.68;95264.28;5060279;28;20025;-49
2024/04/07 08:49:59;;;;;;;2.55;0.85;;;;;;;28.70;20.98;95250.69;5066899;28;20047;-48
2024/04/07 08:52:27;;;;;;;;;;;;;;;28.51;21.42;95247.22;5065816;28;20032;-51
2024/04/07 08:54:52;;;;;;;3.35;0.95;;;;;;;28.82;21.70;95247.53;5067410;28;19959;-51
2024/04/07 08:57:18;;;;;;;2.45;1.00;;;;;;;29.11;20.02;95243.84;5051329;28;20056;-51
2024/04/07 08:59:48;;;;;;;7.20;0.90;;;;;;;29.03;20.11;95254.16;5068021;28;20183;-51
2024/04/07 09:02:15;;;;;;;4.50;0.90;;;;;;;29.55;17.76;95254.06;5066637;28;20032;-50
2024/04/07 09:04:40;;;;;;;3.25;0.85;;;;;;;29.14;20.76;95249.44;5068694;28;20031;-49
2024/04/07 09:07:06;;;;;;;3.17;0.73;;;;;;;29.32;20.93;95250.47;5067611;28;20041;-48
2024/04/07 09:09:32;;;;;;;3.25;0.80;;;;;;;29.32;20.66;95252.34;5069739;28;20036;-51
2024/04/07 09:11:59;;;;;;;3.97;1.00;;;;;;;29.30;19.69;95246.47;5060699;28;20040;-51
2024/04/07 09:14:29;;;;;;;3.42;1.13;;;;;;;29.17;21.87;95251.53;5068300;28;20093;-50
2024/04/07 09:17:04;;;;;;;2.95;0.85;;;;;;;29.70;20.67;95244.13;5068647;28;20087;-50
2024/04/07 09:19:37;;;;;;;2.72;0.90;;;;;;;29.28;21.57;95243.31;5068186;28;20094;-50
2024/04/07 09:22:04;;;;;;;2.78;1.08;;;;;;;29.18;21.21;95239.72;5049835;28;20036;-51
2024/04/07 09:24:31;;;;;;;2.55;0.88;;;;;;;29.42;20.55;95238.78;5083254;28;20469;-47
2024/04/07 09:27:10;;;;;;;4.05;1.20;;;;;;;29.54;20.90;95239.06;5070249;28;20052;-46
2024/04/07 09:29:38;;;;;;;3.47;0.80;;;;;;;29.48;20.39;95240.25;5066283;28;20060;-45
2024/04/07 09:32:04;;;;;;;2.92;0.80;;;;;;;29.50;20.05;95235.38;5064685;28;20107;-45
2024/04/07 09:34:31;;;;;;;5.35;0.98;;;;;;;29.41;19.15;95229.91;5069132;28;20039;-44
2024/04/07 09:36:59;;;;;;;2.67;1.20;;;;;;;29.58;18.97;95237.38;5051325;28;20037;-46
2024/04/07 09:39:26;;;;;;;5.55;0.95;;;;;;;29.53;17.74;95224.09;5068341;28;20035;-45
2024/04/07 09:41:55;;;;;;;5.20;1.00;;;;;;;29.31;18.72;95221.28;5071623;28;20037;-47
2024/04/07 09:44:21;;;;;;;4.22;1.10;;;;;;;29.43;19.06;95222.41;5069673;28;20044;-44
2024/04/07 09:46:47;;;;;;;3.80;1.30;;;;;;;30.01;16.88;95218.31;5051090;28;20037;-45
2024/04/07 09:49:14;;;;;;;7.72;1.20;;;;;;;29.92;17.76;95211.28;5070406;28;20036;-46
2024/04/07 09:51:45;;;;;;;5.82;1.10;;;;;;;29.69;18.24;95210.38;5067360;28;20098;-48
2024/04/07 09:54:25;;;;;;;3.60;1.30;;;;;;;29.65;19.44;95214.75;5068754;28;20088;-45
2024/04/07 09:56:52;;;;;;;5.88;1.17;;;;;;;29.81;17.41;95213.38;5064828;28;20442;-44
2024/04/07 09:59:18;;;;;;;4.25;1.13;;;;;;;30.14;17.75;95226.59;5068189;28;20093;-46
2024/04/07 10:01:44;;;;;;;5.95;1.17;;;;;;;29.67;17.08;95217.94;5067907;28;20048;-44
2024/04/07 10:04:11;;;;;;;7.72;1.35;;;;;;;29.73;19.33;95214.06;5070405;28;20033;-45
2024/04/07 10:06:38;;;;;;;6.57;1.20;;;;;;;29.89;19.04;95215.34;5067048;28;20036;-46
2024/04/07 10:09:05;;;;;;;9.68;1.48;;;;;;;30.18;19.38;95212.31;5037793;28;20072;-51
2024/04/07 10:11:30;;;;;;;5.50;1.20;;;;;;;30.38;21.43;95205.69;5071233;28;20041;-50
2024/04/07 10:13:56;;;;;;;8.55;1.33;;;;;;;30.71;18.95;95212.72;5067632;28;20036;-50
2024/04/07 10:16:24;;;;;;;9.55;1.30;;;;;;;30.67;20.09;95209.84;5069360;28;20033;-48
2024/04/07 10:18:50;;;;;;;4.90;1.10;;;;;;;30.65;19.00;95209.34;5068731;28;20040;-50
2024/04/07 10:21:16;;;;;;;6.82;1.40;;;;;;;31.07;20.05;95215.34;5067499;28;20036;-51
2024/04/07 10:23:44;;;;;;;6.72;1.30;;;;;;;30.84;21.45;95216.44;5068878;28;20032;-51
2024/04/07 10:26:10;;;;;;;5.13;1.00;;;;;;;30.94;22.12;95218.91;5060656;28;20033;-49
2024/04/07 10:28:49;;;;;;;4.53;1.10;;;;;;;30.87;21.45;95202.41;5071872;28;20060;-49
2024/04/07 10:31:22;;;;;;;5.18;1.40;;;;;;;30.83;22.24;95190.69;5059285;28;20031;-49
2024/04/07 10:33:49;;;;;;;9.43;1.38;;;;;;;30.90;22.36;95188.38;5068859;28;20036;-47
2024/04/07 10:36:17;;;;;;;5.00;1.30;;;;;;;31.05;21.24;95177.22;5070515;28;20036;-50
2024/04/07 10:38:51;;;;;;;5.80;1.30;;;;;;;30.95;20.61;95177.50;5068416;28;20040;-50
2024/04/07 10:41:28;;;;;;;3.20;1.10;;;;;;;30.96;21.94;95182.59;5078033;28;20152;-47
2024/04/07 10:43:55;;;;;;;6.30;1.23;;;;;;;30.94;22.30;95181.31;5069936;28;20102;-49
2024/04/07 10:46:22;;;;;;;6.38;1.38;;;;;;;30.80;23.35;95184.81;5067518;28;20025;-48
2024/04/07 10:48:49;;;;;;;5.40;1.10;;;;;;;30.68;23.53;95171.19;5069363;28;20059;-47
2024/04/07 10:51:16;;;;;;;4.00;1.13;;;;;;;30.72;21.39;95176.72;5067729;28;20391;-50
2024/04/07 10:53:46;;;;;;;3.88;1.15;;;;;;;30.51;25.89;95171.84;5069202;28;20036;-50
2024/04/07 10:56:11;;;;;;;;;;;;;;;30.08;26.73;95158.09;5069172;28;20021;-49
2024/04/07 10:58:38;;;;;;;5.40;1.25;;;;;;;30.40;22.88;95163.25;5083918;28;19912;-49
2024/04/07 11:01:06;;;;;;;4.75;1.10;;;;;;;30.43;22.66;95166.44;5066640;28;20021;-49
2024/04/07 11:03:38;;;;;;;5.50;1.10;;;;;;;30.11;21.19;95157.50;5051361;28;20037;-48
2024/04/07 11:06:04;;;;;;;5.28;1.17;;;;;;;29.60;21.29;95154.78;5063903;28;20032;-48
2024/04/07 11:08:30;;;;;;;7.45;1.45;;;;;;;29.22;21.63;95157.69;5066779;28;20048;-49
2024/04/07 11:10:56;;;;;;;3.55;1.20;;;;;;;28.81;22.84;95145.03;5065536;28;20029;-49
2024/04/07 11:13:22;;;;;;;3.92;1.33;;;;;;;29.03;23.35;95146.25;5067618;28;20032;-48
2024/04/07 11:15:51;;;;;;;4.15;1.17;;;;;;;28.82;24.61;95141.25;5066145;28;20123;-50
2024/04/07 11:18:20;;;;;;;2.47;1.10;;;;;;;28.83;22.38;95126.78;5067070;28;20539;-52
2024/04/07 11:20:46;;;;;;;5.00;1.40;;;;;;;28.93;23.61;95143.75;5060521;28;20052;-49
2024/04/07 11:23:12;;;;;;;3.03;0.80;;;;;;;28.80;22.23;95143.44;5066872;28;20067;-49
2024/04/07 11:25:41;;;;;;;2.92;1.20;;;;;;;28.49;23.72;95137.81;5068986;28;20043;-50
2024/04/07 11:28:12;;;;;;;6.35;1.20;;;;;;;28.12;24.43;95136.78;5066132;28;20052;-46
2024/04/07 11:30:52;;;;;;;2.08;1.17;;;;;;;28.00;25.05;95153.25;5060733;28;20032;-47
2024/04/07 11:33:17;;;;;;;6.10;1.10;;;;;;;28.18;26.35;95137.47;5063919;28;20028;-49
2024/04/07 11:35:44;;;;;;;4.15;1.10;;;;;;;28.29;23.39;95128.22;5060433;28;20040;-49